Time;durP1;ratioP1;P1;durP2;ratioP2;P2;SDS_P1;SDS_P2;PMS_P1;PMS_P2;Temp;Humidity;BMP_temperature;BMP_pressure;BME280_temperature;BME280_humidity;BME280_pressure;Samples;Min_cycle;Max_cycle;Signal;HPM_P1;HPM_P2
2023/09/12 00:02:24;;;;;;;6.00;4.00;;;;;;;;;;4979229;28;20019;-81
2023/09/12 00:04:50;;;;;;;6.60;3.70;;;;;;;;;;4990186;28;20408;-81
2023/09/12 00:07:16;;;;;;;5.85;3.15;;;;;;;;;;5000134;28;20045;-81
2023/09/12 00:09:42;;;;;;;6.10;3.72;;;;;;;;;;4998005;28;20030;-81
2023/09/12 00:12:08;;;;;;;6.68;3.83;;;;;;;;;;5001904;28;20600;-82
2023/09/12 00:14:34;;;;;;;4.47;3.47;;;;;;;;;;5015022;28;20033;-81
2023/09/12 00:17:00;;;;;;;6.25;4.18;;;;;;;;;;5001753;28;20038;-82
2023/09/12 00:19:26;;;;;;;6.35;4.15;;;;;;;;;;5009674;28;20557;-81
2023/09/12 00:21:53;;;;;;;6.75;3.90;;;;;;;;;;4994452;28;20034;-81
2023/09/12 00:24:19;;;;;;;8.77;4.72;;;;;;;;;;5001236;28;20530;-82
2023/09/12 00:26:45;;;;;;;4.97;3.60;;;;;;;;;;5019994;28;20021;-81
2023/09/12 00:29:10;;;;;;;9.40;4.80;;;;;;;;;;5011079;28;20658;-81
2023/09/12 00:31:36;;;;;;;8.43;4.22;;;;;;;;;;5020300;28;20519;-82
2023/09/12 00:34:02;;;;;;;7.25;3.80;;;;;;;;;;5005002;28;20656;-81
2023/09/12 00:36:28;;;;;;;6.53;3.63;;;;;;;;;;5004753;28;20025;-82
2023/09/12 00:38:54;;;;;;;6.35;3.70;;;;;;;;;;5008311;28;20037;-81
2023/09/12 00:41:20;;;;;;;6.25;3.47;;;;;;;;;;5005664;28;20491;-81
2023/09/12 00:43:46;;;;;;;7.97;4.50;;;;;;;;;;5009246;28;20037;-81
2023/09/12 00:46:16;;;;;;;5.65;3.30;;;;;;;;;;5001710;28;20027;-81
2023/09/12 00:48:42;;;;;;;4.93;3.13;;;;;;;;;;5004628;28;20041;-82
2023/09/12 00:51:09;;;;;;;5.50;3.47;;;;;;;;;;5009514;28;20033;-81
2023/09/12 00:53:35;;;;;;;15.07;4.97;;;;;;;;;;5010651;28;20026;-81
2023/09/12 00:56:02;;;;;;;6.25;3.50;;;;;;;;;;5011901;28;20038;-81
2023/09/12 00:58:28;;;;;;;6.07;3.50;;;;;;;;;;5006935;28;20030;-81
2023/09/12 01:00:55;;;;;;;6.88;3.88;;;;;;;;;;5008246;28;20072;-81
2023/09/12 01:03:21;;;;;;;9.50;3.75;;;;;;;;;;4998430;28;20031;-82
2023/09/12 01:05:47;;;;;;;5.70;3.60;;;;;;;;;;4998960;28;20480;-81
2023/09/12 01:08:13;;;;;;;4.43;3.42;;;;;;;;;;5009645;28;20026;-81
2023/09/12 01:10:39;;;;;;;11.73;3.53;;;;;;;;;;5005107;28;20037;-82
2023/09/12 01:13:05;;;;;;;7.40;3.83;;;;;;;;;;4999825;28;20037;-82
2023/09/12 01:15:30;;;;;;;4.45;3.20;;;;;;;;;;5009982;28;20473;-81
2023/09/12 01:17:57;;;;;;;6.45;3.60;;;;;;;;;;4994071;28;20022;-82
2023/09/12 01:20:25;;;;;;;8.55;4.50;;;;;;;;;;4996456;28;20097;-81
2023/09/12 01:23:03;;;;;;;5.15;3.30;;;;;;;;;;4993948;28;20053;-81
2023/09/12 01:25:48;;;;;;;7.10;3.22;;;;;;;;;;5005952;28;20065;-81
2023/09/12 01:28:15;;;;;;;6.15;4.03;;;;;;;;;;5000617;28;20033;-81
2023/09/12 01:30:42;;;;;;;4.80;3.42;;;;;;;;;;5004145;28;20095;-82
2023/09/12 01:33:09;;;;;;;4.90;3.28;;;;;;;;;;5001354;28;20030;-81
2023/09/12 01:35:35;;;;;;;4.78;3.25;;;;;;;;;;5008084;28;20906;-81
2023/09/12 01:38:01;;;;;;;6.53;3.95;;;;;;;;;;5007538;28;20029;-81
2023/09/12 01:40:43;;;;;;;5.60;3.40;;;;;;;;;;5011066;28;20075;-81
2023/09/12 01:43:09;;;;;;;5.57;3.45;;;;;;;;;;5012496;28;20025;-81
2023/09/12 01:45:36;;;;;;;6.75;3.42;;;;;;;;;;5008420;28;20365;-81
2023/09/12 01:48:03;;;;;;;8.45;4.00;;;;;;;;;;5012951;28;20067;-81
2023/09/12 01:50:29;;;;;;;10.27;3.90;;;;;;;;;;5005159;28;20029;-81
2023/09/12 01:52:55;;;;;;;7.60;3.92;;;;;;;;;;5007219;28;20044;-81
2023/09/12 01:55:23;;;;;;;5.18;3.20;;;;;;;;;;5004303;28;20518;-81
2023/09/12 01:57:49;;;;;;;7.03;3.38;;;;;;;;;;5007085;28;20030;-80
2023/09/12 02:00:15;;;;;;;7.55;3.45;;;;;;;;;;5008755;28;20436;-81
2023/09/12 02:02:41;;;;;;;5.85;3.30;;;;;;;;;;5004079;28;20033;-81
2023/09/12 02:05:18;;;;;;;6.70;3.53;;;;;;;;;;5004129;28;20091;-82
2023/09/12 02:07:45;;;;;;;5.05;3.70;;;;;;;;;;5013697;28;20391;-81
2023/09/12 02:10:11;;;;;;;6.95;3.72;;;;;;;;;;5004774;28;20029;-81
2023/09/12 02:12:37;;;;;;;4.88;2.88;;;;;;;;;;5001745;28;20041;-81
2023/09/12 02:15:03;;;;;;;4.22;2.72;;;;;;;;;;5011993;28;20101;-81
2023/09/12 02:17:29;;;;;;;5.10;3.58;;;;;;;;;;5015577;28;20086;-81
2023/09/12 02:19:55;;;;;;;6.07;3.53;;;;;;;;;;5010117;28;20463;-81
2023/09/12 02:22:21;;;;;;;4.95;3.17;;;;;;;;;;5008672;28;20032;-81
2023/09/12 02:24:47;;;;;;;10.20;3.42;;;;;;;;;;5005397;28;20121;-81
2023/09/12 02:27:13;;;;;;;5.13;3.33;;;;;;;;;;5008530;28;20033;-81
2023/09/12 02:29:40;;;;;;;6.43;3.45;;;;;;;;;;5007104;28;20076;-81
2023/09/12 02:32:06;;;;;;;4.85;3.42;;;;;;;;;;5017573;28;20667;-81
2023/09/12 02:34:33;;;;;;;5.40;3.35;;;;;;;;;;5006026;28;20037;-81
2023/09/12 02:36:58;;;;;;;5.15;3.13;;;;;;;;;;5005782;28;20028;-81
2023/09/12 02:39:24;;;;;;;6.45;2.78;;;;;;;;;;5001398;28;20029;-80
2023/09/12 02:41:50;;;;;;;5.75;2.72;;;;;;;;;;5021708;28;20022;-81
2023/09/12 02:44:16;;;;;;;5.13;3.28;;;;;;;;;;5001752;28;20041;-81
2023/09/12 02:46:42;;;;;;;5.47;3.15;;;;;;;;;;5010042;28;20033;-82
2023/09/12 02:49:08;;;;;;;7.78;3.28;;;;;;;;;;5016986;28;20028;-81
2023/09/12 02:51:39;;;;;;;5.47;3.05;;;;;;;;;;5007575;28;20504;-82
2023/09/12 02:54:05;;;;;;;4.68;3.13;;;;;;;;;;5010383;28;20029;-82
2023/09/12 02:56:31;;;;;;;6.28;2.85;;;;;;;;;;5011738;28;20116;-81
2023/09/12 02:58:57;;;;;;;4.78;2.78;;;;;;;;;;5000050;28;20029;-82
2023/09/12 03:01:27;;;;;;;4.25;2.95;;;;;;;;;;5012781;28;20061;-81
2023/09/12 03:03:53;;;;;;;4.80;3.30;;;;;;;;;;5023628;28;20029;-82
2023/09/12 03:06:20;;;;;;;4.40;3.20;;;;;;;;;;5008068;28;20732;-82
2023/09/12 03:08:47;;;;;;;5.28;3.13;;;;;;;;;;4997652;28;20029;-81
2023/09/12 03:11:13;;;;;;;6.68;3.20;;;;;;;;;;5013534;28;20097;-81
2023/09/12 03:13:40;;;;;;;4.65;3.00;;;;;;;;;;5002507;28;20033;-81
2023/09/12 03:16:06;;;;;;;4.68;3.35;;;;;;;;;;5003658;28;20033;-81
2023/09/12 03:18:32;;;;;;;3.88;2.60;;;;;;;;;;5010450;28;20088;-82
2023/09/12 03:20:57;;;;;;;5.15;3.50;;;;;;;;;;5009264;28;20029;-82
2023/09/12 03:23:23;;;;;;;4.80;2.47;;;;;;;;;;5009877;28;20381;-82
2023/09/12 03:25:49;;;;;;;4.82;2.78;;;;;;;;;;4995705;28;20409;-81
2023/09/12 03:28:15;;;;;;;4.35;3.20;;;;;;;;;;5001737;28;20041;-82
2023/09/12 03:30:41;;;;;;;8.02;3.65;;;;;;;;;;5009758;28;20094;-82
2023/09/12 03:33:07;;;;;;;3.65;2.80;;;;;;;;;;5005014;28;20092;-82
2023/09/12 03:35:33;;;;;;;5.07;2.95;;;;;;;;;;5016719;28;20029;-81
2023/09/12 03:38:00;;;;;;;6.95;2.83;;;;;;;;;;4996026;28;20358;-81
2023/09/12 03:40:26;;;;;;;2.97;2.65;;;;;;;;;;5000060;28;20377;-82
2023/09/12 03:42:52;;;;;;;4.88;2.83;;;;;;;;;;5006628;28;20037;-81
2023/09/12 03:45:18;;;;;;;4.00;2.78;;;;;;;;;;5007756;28;20428;-81
2023/09/12 03:47:46;;;;;;;5.20;2.97;;;;;;;;;;5018891;28;20057;-81
2023/09/12 03:50:13;;;;;;;5.20;3.30;;;;;;;;;;5006039;28;20060;-81
2023/09/12 03:52:38;;;;;;;4.53;2.60;;;;;;;;;;5008339;28;20034;-82
2023/09/12 03:55:05;;;;;;;4.43;2.72;;;;;;;;;;5007488;28;20096;-81
2023/09/12 03:57:31;;;;;;;4.93;2.92;;;;;;;;;;5015618;28;20156;-82
2023/09/12 03:59:57;;;;;;;7.72;3.00;;;;;;;;;;5011898;28;20113;-82
2023/09/12 04:02:23;;;;;;;6.68;3.13;;;;;;;;;;5012139;28;20025;-82
2023/09/12 04:04:49;;;;;;;4.25;2.88;;;;;;;;;;5008615;28;20052;-81
2023/09/12 04:07:15;;;;;;;4.90;2.95;;;;;;;;;;4999661;28;20019;-82
2023/09/12 04:09:41;;;;;;;4.30;3.25;;;;;;;;;;5007108;28;20838;-82
2023/09/12 04:12:08;;;;;;;4.40;2.42;;;;;;;;;;5016243;28;20032;-82
2023/09/12 04:14:34;;;;;;;5.38;3.25;;;;;;;;;;5014668;28;20030;-81
2023/09/12 04:17:00;;;;;;;3.97;2.72;;;;;;;;;;5009158;28;20539;-82
2023/09/12 04:19:26;;;;;;;4.72;2.88;;;;;;;;;;5005907;28;20018;-81
2023/09/12 04:21:52;;;;;;;3.28;2.00;;;;;;;;;;5003055;28;20026;-82
2023/09/12 04:24:18;;;;;;;3.42;2.65;;;;;;;;;;5010961;28;20055;-82
2023/09/12 04:26:44;;;;;;;6.93;3.15;;;;;;;;;;5008203;28;20097;-82
2023/09/12 04:29:11;;;;;;;3.42;2.35;;;;;;;;;;5009080;28;20716;-82
2023/09/12 04:31:37;;;;;;;4.57;3.05;;;;;;;;;;5008353;28;20037;-82
2023/09/12 04:34:03;;;;;;;4.28;2.58;;;;;;;;;;5008097;28;20121;-82
2023/09/12 04:36:29;;;;;;;5.00;3.03;;;;;;;;;;5003854;28;20045;-82
2023/09/12 04:38:55;;;;;;;7.13;3.20;;;;;;;;;;5006021;28;20034;-82
2023/09/12 04:41:21;;;;;;;4.60;3.00;;;;;;;;;;4995749;28;20380;-82
2023/09/12 04:43:46;;;;;;;4.30;2.90;;;;;;;;;;5008011;28;20033;-82
2023/09/12 04:46:12;;;;;;;4.35;2.70;;;;;;;;;;5006595;28;20037;-81
2023/09/12 04:48:39;;;;;;;7.68;2.97;;;;;;;;;;5005557;28;20050;-82
2023/09/12 04:51:05;;;;;;;5.10;2.97;;;;;;;;;;4992803;28;20116;-82
2023/09/12 04:53:34;;;;;;;4.97;3.00;;;;;;;;;;5007095;28;20480;-78
2023/09/12 04:56:01;;;;;;;5.40;3.13;;;;;;;;;;5001402;28;20100;-78
2023/09/12 04:58:27;;;;;;;3.50;2.38;;;;;;;;;;4996874;28;20392;-79
2023/09/12 05:00:52;;;;;;;4.60;2.60;;;;;;;;;;5008238;28;20022;-76
2023/09/12 05:03:18;;;;;;;6.63;3.30;;;;;;;;;;4998434;28;20597;-76
2023/09/12 05:05:48;;;;;;;4.05;2.95;;;;;;;;;;5001219;28;20038;-77
2023/09/12 05:08:14;;;;;;;7.10;2.97;;;;;;;;;;4997656;28;20548;-76
2023/09/12 05:10:40;;;;;;;11.45;3.30;;;;;;;;;;4998502;28;20026;-81
2023/09/12 05:13:06;;;;;;;8.25;3.13;;;;;;;;;;5004049;28;20781;-81
2023/09/12 05:15:32;;;;;;;8.50;4.00;;;;;;;;;;5010757;28;20037;-81
2023/09/12 05:17:58;;;;;;;3.45;2.75;;;;;;;;;;5005401;28;20041;-83
2023/09/12 05:20:24;;;;;;;3.97;2.90;;;;;;;;;;5007096;28;20029;-82
2023/09/12 05:22:50;;;;;;;3.10;2.55;;;;;;;;;;5009017;28;20041;-80
2023/09/12 05:25:16;;;;;;;8.23;3.03;;;;;;;;;;5011564;28;20033;-80
2023/09/12 05:27:42;;;;;;;6.05;2.90;;;;;;;;;;5003749;28;20046;-79
2023/09/12 05:30:08;;;;;;;6.82;3.22;;;;;;;;;;5011398;28;20081;-82
2023/09/12 05:32:34;;;;;;;4.45;2.83;;;;;;;;;;5005970;28;20029;-79
2023/09/12 05:34:59;;;;;;;7.82;2.65;;;;;;;;;;5007624;28;20092;-79
2023/09/12 05:37:25;;;;;;;4.13;3.10;;;;;;;;;;5007443;28;20030;-79
2023/09/12 05:39:51;;;;;;;2.53;2.13;;;;;;;;;;4992429;28;20026;-79
2023/09/12 05:42:20;;;;;;;4.40;2.45;;;;;;;;;;5011021;28;20025;-79
2023/09/12 05:44:47;;;;;;;3.40;2.90;;;;;;;;;;5009031;28;20038;-79
2023/09/12 05:47:13;;;;;;;5.05;3.13;;;;;;;;;;5011271;28;20034;-78
2023/09/12 05:49:42;;;;;;;3.70;2.95;;;;;;;;;;5009959;28;20111;-79
2023/09/12 05:52:08;;;;;;;10.13;2.97;;;;;;;;;;5002704;28;20435;-79
2023/09/12 05:54:34;;;;;;;4.82;2.95;;;;;;;;;;4996846;28;20030;-79
2023/09/12 05:57:00;;;;;;;6.38;3.22;;;;;;;;;;4991883;28;20461;-79
2023/09/12 05:59:26;;;;;;;4.22;2.90;;;;;;;;;;4992092;28;20025;-78
2023/09/12 06:01:52;;;;;;;8.93;2.80;;;;;;;;;;5004660;28;20030;-78
2023/09/12 06:04:18;;;;;;;4.70;3.28;;;;;;;;;;5004552;28;20116;-78
2023/09/12 06:06:45;;;;;;;8.18;3.20;;;;;;;;;;5009726;28;20133;-79
2023/09/12 06:09:11;;;;;;;5.53;2.78;;;;;;;;;;5010389;28;20473;-76
2023/09/12 06:11:37;;;;;;;4.80;2.92;;;;;;;;;;5011684;28;20476;-80
2023/09/12 06:14:03;;;;;;;4.10;2.70;;;;;;;;;;5013099;28;20550;-76
2023/09/12 06:16:29;;;;;;;3.25;2.40;;;;;;;;;;4999421;28;20030;-79
2023/09/12 06:18:55;;;;;;;4.25;2.83;;;;;;;;;;5008160;28;20439;-76
2023/09/12 06:21:21;;;;;;;3.60;2.70;;;;;;;;;;5006999;28;20653;-76
2023/09/12 06:23:48;;;;;;;5.07;3.00;;;;;;;;;;4997058;28;20034;-76
2023/09/12 06:26:14;;;;;;;3.03;2.35;;;;;;;;;;5010649;28;20144;-76
2023/09/12 06:28:40;;;;;;;4.55;2.90;;;;;;;;;;5011035;28;20018;-84
2023/09/12 06:31:09;;;;;;;4.57;2.88;;;;;;;;;;5010807;28;20076;-85
2023/09/12 06:33:35;;;;;;;6.35;2.67;;;;;;;;;;5010648;28;20480;-84
2023/09/12 06:36:02;;;;;;;3.15;2.45;;;;;;;;;;5010663;28;20696;-84
2023/09/12 06:38:28;;;;;;;5.85;2.70;;;;;;;;;;5010732;28;20041;-84
2023/09/12 06:40:55;;;;;;;6.50;3.42;;;;;;;;;;5010120;28;20241;-84
2023/09/12 06:43:21;;;;;;;4.18;2.60;;;;;;;;;;4998367;28;20053;-84
2023/09/12 06:45:48;;;;;;;4.15;2.67;;;;;;;;;;4989701;28;20027;-84
2023/09/12 06:48:14;;;;;;;4.05;2.60;;;;;;;;;;4990391;28;20436;-78
2023/09/12 06:50:40;;;;;;;3.50;2.85;;;;;;;;;;4990912;28;20030;-77
2023/09/12 06:53:10;;;;;;;5.80;2.88;;;;;;;;;;4990703;28;20523;-77
2023/09/12 06:55:36;;;;;;;3.83;2.45;;;;;;;;;;5010679;28;20064;-76
2023/09/12 06:58:03;;;;;;;2.78;2.25;;;;;;;;;;5009528;28;20036;-77
2023/09/12 07:00:29;;;;;;;3.78;2.95;;;;;;;;;;5010503;28;20045;-77
2023/09/12 07:02:55;;;;;;;2.80;2.38;;;;;;;;;;5010062;28;20055;-76
2023/09/12 07:05:21;;;;;;;4.22;2.88;;;;;;;;;;5009748;28;20117;-76
2023/09/12 07:07:47;;;;;;;4.70;3.17;;;;;;;;;;5009996;28;20481;-77
2023/09/12 07:10:13;;;;;;;4.90;2.85;;;;;;;;;;5009664;28;20034;-77
2023/09/12 07:12:38;;;;;;;4.63;2.90;;;;;;;;;;5010230;28;20033;-77
2023/09/12 07:15:05;;;;;;;5.35;3.00;;;;;;;;;;5009335;28;20030;-77
2023/09/12 07:17:31;;;;;;;6.18;3.20;;;;;;;;;;5010089;28;20040;-78
2023/09/12 07:19:57;;;;;;;3.58;2.50;;;;;;;;;;5009292;28;20026;-75
2023/09/12 07:22:23;;;;;;;5.93;2.88;;;;;;;;;;5009490;28;20385;-75
2023/09/12 07:24:49;;;;;;;4.32;2.95;;;;;;;;;;5009962;28;20034;-76
2023/09/12 07:27:15;;;;;;;6.15;2.40;;;;;;;;;;5009533;28;20091;-76
2023/09/12 07:29:40;;;;;;;5.32;3.17;;;;;;;;;;5009391;28;20021;-75
2023/09/12 07:32:06;;;;;;;4.35;3.05;;;;;;;;;;5009418;28;20443;-75
2023/09/12 07:34:33;;;;;;;5.53;3.15;;;;;;;;;;5009852;28;20489;-75
2023/09/12 07:36:59;;;;;;;5.13;3.20;;;;;;;;;;5009243;28;20679;-77
2023/09/12 07:39:24;;;;;;;3.97;2.42;;;;;;;;;;5009525;28;20050;-76
2023/09/12 07:41:50;;;;;;;3.00;2.28;;;;;;;;;;5008750;28;20032;-77
2023/09/12 07:44:16;;;;;;;5.53;2.60;;;;;;;;;;5006883;28;20094;-76
2023/09/12 07:46:43;;;;;;;3.35;2.55;;;;;;;;;;5008250;28;20022;-76
2023/09/12 07:49:09;;;;;;;3.03;2.10;;;;;;;;;;5007898;28;20032;-77
2023/09/12 07:51:35;;;;;;;3.53;2.38;;;;;;;;;;5008671;28;20208;-77
2023/09/12 07:54:02;;;;;;;4.38;2.63;;;;;;;;;;5008049;28;20468;-76
2023/09/12 07:56:28;;;;;;;2.97;2.05;;;;;;;;;;5008748;28;20064;-76
2023/09/12 07:58:55;;;;;;;2.85;2.47;;;;;;;;;;5007100;28;20034;-77
2023/09/12 08:01:21;;;;;;;6.40;2.92;;;;;;;;;;5008446;28;20022;-76
2023/09/12 08:03:47;;;;;;;3.78;2.42;;;;;;;;;;5007943;28;20025;-76
2023/09/12 08:06:13;;;;;;;5.43;2.38;;;;;;;;;;5007358;28;20025;-77
2023/09/12 08:08:39;;;;;;;5.38;2.50;;;;;;;;;;5008559;28;20448;-76
2023/09/12 08:11:05;;;;;;;3.75;2.13;;;;;;;;;;5007975;28;20033;-77
2023/09/12 08:13:31;;;;;;;3.45;2.17;;;;;;;;;;5007959;28;20029;-76
2023/09/12 08:15:57;;;;;;;4.40;2.47;;;;;;;;;;5007974;28;20037;-76
2023/09/12 08:18:31;;;;;;;2.90;2.00;;;;;;;;;;5008365;28;20057;-76
2023/09/12 08:20:57;;;;;;;5.07;2.83;;;;;;;;;;5004700;28;20021;-76
2023/09/12 08:23:23;;;;;;;4.28;2.42;;;;;;;;;;4999548;28;20469;-76
2023/09/12 08:25:49;;;;;;;3.92;2.42;;;;;;;;;;4993607;28;20025;-76
2023/09/12 08:28:15;;;;;;;3.72;2.58;;;;;;;;;;4988302;28;20094;-76
2023/09/12 08:30:41;;;;;;;3.97;2.33;;;;;;;;;;4988416;28;20057;-76
2023/09/12 08:33:07;;;;;;;4.70;2.38;;;;;;;;;;4987928;28;20512;-76
2023/09/12 08:35:33;;;;;;;5.22;3.10;;;;;;;;;;4988390;28;20040;-76
2023/09/12 08:37:59;;;;;;;3.50;2.55;;;;;;;;;;4993977;28;20022;-76
2023/09/12 08:40:25;;;;;;;5.18;2.53;;;;;;;;;;5003642;28;20469;-76
2023/09/12 08:42:52;;;;;;;5.78;3.38;;;;;;;;;;5008069;28;20481;-76
2023/09/12 08:45:19;;;;;;;2.97;2.13;;;;;;;;;;5005745;28;20104;-77
2023/09/12 08:47:45;;;;;;;3.65;2.55;;;;;;;;;;4999781;28;20030;-77
2023/09/12 08:50:16;;;;;;;2.72;1.92;;;;;;;;;;4987691;28;20413;-76
2023/09/12 08:52:42;;;;;;;3.70;2.28;;;;;;;;;;4990208;28;20030;-76
2023/09/12 08:55:08;;;;;;;3.65;2.40;;;;;;;;;;5014700;28;20052;-76
2023/09/12 08:57:36;;;;;;;3.28;2.17;;;;;;;;;;5013758;28;20033;-76
2023/09/12 09:00:09;;;;;;;6.65;2.42;;;;;;;;;;5014340;28;20045;-76
2023/09/12 09:02:38;;;;;;;4.55;2.67;;;;;;;;;;5013568;28;20033;-76
2023/09/12 09:05:05;;;;;;;4.30;2.47;;;;;;;;;;5014375;28;20136;-76
2023/09/12 09:07:33;;;;;;;4.20;2.72;;;;;;;;;;5017005;28;20444;-76
2023/09/12 09:09:59;;;;;;;2.35;1.88;;;;;;;;;;5015645;28;20151;-76
2023/09/12 09:12:27;;;;;;;3.45;2.42;;;;;;;;;;5020114;28;20190;-76
2023/09/12 09:14:53;;;;;;;2.47;2.10;;;;;;;;;;5016322;28;20025;-77
2023/09/12 09:17:20;;;;;;;3.78;1.77;;;;;;;;;;5013119;28;20041;-77
2023/09/12 09:19:46;;;;;;;2.85;2.10;;;;;;;;;;5016636;28;20028;-77
2023/09/12 09:22:12;;;;;;;5.63;2.20;;;;;;;;;;5024491;28;20032;-76
2023/09/12 09:24:38;;;;;;;3.88;2.13;;;;;;;;;;5013902;28;20058;-76
2023/09/12 09:27:07;;;;;;;5.78;2.25;;;;;;;;;;5024359;28;20088;-76
2023/09/12 09:29:46;;;;;;;5.15;2.72;;;;;;;;;;5016757;28;20022;-76
2023/09/12 09:32:17;;;;;;;4.40;2.40;;;;;;;;;;5014445;28;20034;-77
2023/09/12 09:34:43;;;;;;;;;;;;;;;;;;5024328;28;20369;-76
2023/09/12 09:37:09;;;;;;;4.57;3.10;;;;;;;;;;5014539;28;19931;-75
2023/09/12 09:39:35;;;;;;;13.43;4.00;;;;;;;;;;5018247;28;20215;-76
2023/09/12 09:42:01;;;;;;;7.25;2.80;;;;;;;;;;5021620;28;20909;-76
2023/09/12 09:44:28;;;;;;;5.20;3.08;;;;;;;;;;5011009;28;20113;-77
2023/09/12 09:47:03;;;;;;;5.13;2.78;;;;;;;;;;5021704;28;20022;-76
2023/09/12 09:49:34;;;;;;;4.55;2.90;;;;;;;;;;5018329;28;20026;-77
2023/09/12 09:52:00;;;;;;;7.37;3.40;;;;;;;;;;5018200;28;20037;-76
2023/09/12 09:54:26;;;;;;;6.57;3.47;;;;;;;;;;5018662;28;20109;-76
2023/09/12 09:56:57;;;;;;;5.35;3.92;;;;;;;;;;5017714;28;20077;-76
2023/09/12 09:59:24;;;;;;;6.05;3.80;;;;;;;;;;5017180;28;20861;-77
2023/09/12 10:01:51;;;;;;;6.20;3.67;;;;;;;;;;5017073;28;20450;-76
2023/09/12 10:04:18;;;;;;;9.02;2.92;;;;;;;;;;5017747;28;20045;-78
2023/09/12 10:06:45;;;;;;;6.28;3.28;;;;;;;;;;5018520;28;20484;-77
2023/09/12 10:09:12;;;;;;;4.40;3.22;;;;;;;;;;5007701;28;20487;-75
2023/09/12 10:11:39;;;;;;;12.50;3.75;;;;;;;;;;5004811;28;20037;-75
2023/09/12 10:14:06;;;;;;;5.03;3.25;;;;;;;;;;5018115;28;20021;-81
2023/09/12 10:16:33;;;;;;;5.00;3.50;;;;;;;;;;5018037;28;20112;-79
2023/09/12 10:19:13;;;;;;;5.65;2.97;;;;;;;;;;5005858;28;20384;-79
2023/09/12 10:21:58;;;;;;;7.15;3.35;;;;;;;;;;5005854;28;20061;-79
2023/09/12 10:24:25;;;;;;;3.85;3.00;;;;;;;;;;5001568;28;20048;-79
2023/09/12 10:26:51;;;;;;;4.35;2.97;;;;;;;;;;5019100;28;20029;-79
2023/09/12 10:29:17;;;;;;;6.93;3.25;;;;;;;;;;5010754;28;20038;-78
2023/09/12 10:31:44;;;;;;;5.80;3.05;;;;;;;;;;5011037;28;20412;-79
2023/09/12 10:34:12;;;;;;;6.10;4.22;;;;;;;;;;5009096;28;20046;-79
2023/09/12 10:36:39;;;;;;;5.05;3.40;;;;;;;;;;5009376;28;20026;-79
2023/09/12 10:39:06;;;;;;;6.57;3.20;;;;;;;;;;5009368;28;20064;-79
2023/09/12 10:41:32;;;;;;;9.48;4.15;;;;;;;;;;5015400;28;20071;-79
2023/09/12 10:43:59;;;;;;;5.90;3.30;;;;;;;;;;5013723;28;20026;-79
2023/09/12 10:46:25;;;;;;;8.93;3.28;;;;;;;;;;5004446;28;20026;-79
2023/09/12 10:48:52;;;;;;;6.65;3.55;;;;;;;;;;5006178;28;20049;-79
2023/09/12 10:51:19;;;;;;;4.75;3.20;;;;;;;;;;5022455;28;20033;-79
2023/09/12 10:53:48;;;;;;;5.43;3.08;;;;;;;;;;5007309;28;20087;-79
2023/09/12 10:56:15;;;;;;;5.90;3.00;;;;;;;;;;5019155;28;20041;-78
2023/09/12 10:59:01;;;;;;;5.43;3.05;;;;;;;;;;5015165;28;20535;-78
2023/09/12 11:01:27;;;;;;;5.78;3.45;;;;;;;;;;5013789;28;20036;-79
2023/09/12 11:03:53;;;;;;;6.50;2.92;;;;;;;;;;5017492;28;20022;-79
2023/09/12 11:06:23;;;;;;;7.78;3.40;;;;;;;;;;5014939;28;20033;-79
2023/09/12 11:09:08;;;;;;;6.67;3.17;;;;;;;;;;5015632;28;20083;-79
2023/09/12 11:11:34;;;;;;;6.88;2.78;;;;;;;;;;5012419;28;20117;-79
2023/09/12 11:14:03;;;;;;;4.35;2.83;;;;;;;;;;5011051;28;20166;-79
2023/09/12 11:16:29;;;;;;;4.72;2.90;;;;;;;;;;5006328;28;20119;-79
2023/09/12 11:19:14;;;;;;;5.28;3.55;;;;;;;;;;5012180;28;20026;-79
2023/09/12 11:21:40;;;;;;;4.78;3.08;;;;;;;;;;5004501;28;20052;-79
2023/09/12 11:24:06;;;;;;;5.35;3.10;;;;;;;;;;5003473;28;20017;-79
2023/09/12 11:26:32;;;;;;;4.03;2.60;;;;;;;;;;5014417;28;20134;-79
2023/09/12 11:29:11;;;;;;;4.40;3.03;;;;;;;;;;5023534;28;20492;-79
2023/09/12 11:31:41;;;;;;;4.07;2.53;;;;;;;;;;5022392;28;20036;-79
2023/09/12 11:34:08;;;;;;;4.63;2.60;;;;;;;;;;5013606;28;20029;-80
2023/09/12 11:36:38;;;;;;;4.43;2.75;;;;;;;;;;5022557;28;20369;-79
2023/09/12 11:39:22;;;;;;;4.70;2.80;;;;;;;;;;5016748;28;20048;-80
2023/09/12 11:41:49;;;;;;;3.03;2.70;;;;;;;;;;5019620;28;20491;-75
2023/09/12 11:44:16;;;;;;;4.80;2.38;;;;;;;;;;5014099;28;20048;-76
2023/09/12 11:46:43;;;;;;;4.97;2.83;;;;;;;;;;5018487;28;20400;-76
2023/09/12 11:49:09;;;;;;;9.07;2.67;;;;;;;;;;5000152;28;20437;-76
2023/09/12 11:51:34;;;;;;;4.07;2.35;;;;;;;;;;5008429;28;20044;-76
2023/09/12 11:54:01;;;;;;;5.18;3.47;;;;;;;;;;5003947;28;20041;-76
2023/09/12 11:56:29;;;;;;;3.78;2.13;;;;;;;;;;5018661;28;20030;-76
2023/09/12 11:58:55;;;;;;;5.55;2.92;;;;;;;;;;5014732;28;20060;-76
2023/09/12 12:01:22;;;;;;;5.65;2.50;;;;;;;;;;5021079;28;20033;-76
2023/09/12 12:03:52;;;;;;;3.10;2.20;;;;;;;;;;5007212;28;20472;-76
2023/09/12 12:06:19;;;;;;;7.25;2.35;;;;;;;;;;5015505;28;20025;-76
2023/09/12 12:08:45;;;;;;;4.32;2.70;;;;;;;;;;5006121;28;20033;-76
2023/09/12 12:11:11;;;;;;;6.18;2.63;;;;;;;;;;5009672;28;20233;-76
2023/09/12 12:13:37;;;;;;;2.67;2.28;;;;;;;;;;5018318;28;20029;-77
2023/09/12 12:16:15;;;;;;;4.50;2.58;;;;;;;;;;5009035;28;20025;-76
2023/09/12 12:18:41;;;;;;;7.30;2.42;;;;;;;;;;5011562;28;20058;-76
2023/09/12 12:21:07;;;;;;;3.75;2.35;;;;;;;;;;5007879;28;20045;-76
2023/09/12 12:23:33;;;;;;;3.85;2.10;;;;;;;;;;5011886;28;20464;-75
2023/09/12 12:26:03;;;;;;;4.10;2.85;;;;;;;;;;5011785;28;20077;-75
2023/09/12 12:28:31;;;;;;;4.00;2.63;;;;;;;;;;5012112;28;20083;-76
2023/09/12 12:30:57;;;;;;;3.50;2.00;;;;;;;;;;5010303;28;20037;-76
2023/09/12 12:33:23;;;;;;;2.78;2.28;;;;;;;;;;5012272;28;20399;-76
2023/09/12 12:35:50;;;;;;;2.35;1.90;;;;;;;;;;5015441;28;20032;-76
2023/09/12 12:38:16;;;;;;;3.72;2.53;;;;;;;;;;5008996;28;20113;-76
2023/09/12 12:40:42;;;;;;;4.15;2.47;;;;;;;;;;5002789;28;20057;-76
2023/09/12 12:43:17;;;;;;;3.00;2.13;;;;;;;;;;5010358;28;20083;-76
2023/09/12 12:45:53;;;;;;;2.45;2.08;;;;;;;;;;5007410;28;20029;-76
2023/09/12 12:48:29;;;;;;;3.95;2.55;;;;;;;;;;5006349;28;20526;-76
2023/09/12 12:50:58;;;;;;;3.38;2.15;;;;;;;;;;5003242;28;20068;-75
2023/09/12 12:53:45;;;;;;;3.28;1.98;;;;;;;;;;5011188;28;20041;-76
2023/09/12 12:56:15;;;;;;;7.28;2.25;;;;;;;;;;4998238;28;20029;-76
2023/09/12 12:58:45;;;;;;;3.33;2.35;;;;;;;;;;5006363;28;20026;-76
2023/09/12 13:01:11;;;;;;;3.08;2.03;;;;;;;;;;4999752;28;20037;-76
2023/09/12 13:03:37;;;;;;;3.65;2.40;;;;;;;;;;5000256;28;20026;-76
2023/09/12 13:06:03;;;;;;;3.63;2.22;;;;;;;;;;5010204;28;20033;-84
2023/09/12 13:08:34;;;;;;;8.90;2.13;;;;;;;;;;5010931;28;20065;-85
2023/09/12 13:11:00;;;;;;;2.65;2.17;;;;;;;;;;4994752;28;20026;-85
2023/09/12 13:13:27;;;;;;;2.85;2.00;;;;;;;;;;5015403;28;20040;-85
2023/09/12 13:15:53;;;;;;;2.67;2.00;;;;;;;;;;5014904;28;20117;-82
2023/09/12 13:18:19;;;;;;;2.88;2.45;;;;;;;;;;5004780;28;20038;-83
2023/09/12 13:20:45;;;;;;;3.63;2.38;;;;;;;;;;5005197;28;20033;-88
2023/09/12 13:23:11;;;;;;;2.92;1.90;;;;;;;;;;5003697;28;20029;-80
2023/09/12 13:25:37;;;;;;;3.42;2.33;;;;;;;;;;5014768;28;20022;-83
2023/09/12 13:28:03;;;;;;;2.95;2.25;;;;;;;;;;5007087;28;20033;-83
2023/09/12 13:30:29;;;;;;;4.63;2.50;;;;;;;;;;5016281;28;20125;-83
2023/09/12 13:32:55;;;;;;;5.25;2.67;;;;;;;;;;5009647;28;20108;-83
2023/09/12 13:35:20;;;;;;;5.00;2.50;;;;;;;;;;5004828;28;20034;-83
2023/09/12 13:37:46;;;;;;;2.30;2.10;;;;;;;;;;5015245;28;20117;-83
2023/09/12 13:40:12;;;;;;;2.95;2.35;;;;;;;;;;5009247;28;20033;-83
2023/09/12 13:42:38;;;;;;;3.42;2.33;;;;;;;;;;5009808;28;20037;-83
2023/09/12 13:45:05;;;;;;;4.38;2.25;;;;;;;;;;5009086;28;20033;-84
2023/09/12 13:47:32;;;;;;;4.97;2.25;;;;;;;;;;5008132;28;20045;-75
2023/09/12 13:49:58;;;;;;;3.47;2.13;;;;;;;;;;5011072;28;20483;-75
2023/09/12 13:52:27;;;;;;;3.13;2.47;;;;;;;;;;5003212;28;20037;-75
2023/09/12 13:54:53;;;;;;;4.60;2.22;;;;;;;;;;5006037;28;20029;-76
2023/09/12 13:57:19;;;;;;;5.47;2.45;;;;;;;;;;5015623;28;20037;-76
2023/09/12 14:03:07;;;;;;;4.65;2.63;;;;;;;;;;4975999;28;20030;-75
2023/09/12 14:05:33;;;;;;;4.38;2.13;;;;;;;;;;4989990;28;20689;-75
2023/09/12 14:07:59;;;;;;;3.25;2.60;;;;;;;;;;4988903;28;20030;-75
2023/09/12 14:10:25;;;;;;;3.17;2.10;;;;;;;;;;4995196;28;20034;-75
2023/09/12 14:12:51;;;;;;;2.78;2.22;;;;;;;;;;4991287;28;20026;-77
2023/09/12 14:15:17;;;;;;;4.22;2.08;;;;;;;;;;4991478;28;20034;-76
2023/09/12 14:17:43;;;;;;;6.32;2.22;;;;;;;;;;4991511;28;20017;-75
2023/09/12 14:20:09;;;;;;;4.88;2.97;;;;;;;;;;4978493;28;20030;-75
2023/09/12 14:22:35;;;;;;;4.32;2.58;;;;;;;;;;4992063;28;20829;-75
2023/09/12 14:25:01;;;;;;;5.82;2.65;;;;;;;;;;4998980;28;20041;-75
2023/09/12 14:27:27;;;;;;;2.47;2.00;;;;;;;;;;4989367;28;20038;-75
2023/09/12 14:29:53;;;;;;;3.80;2.65;;;;;;;;;;4985032;28;20485;-75
2023/09/12 14:32:20;;;;;;;3.22;2.67;;;;;;;;;;4996330;28;20042;-75
2023/09/12 14:34:46;;;;;;;7.47;2.45;;;;;;;;;;4984388;28;20026;-75
2023/09/12 14:37:12;;;;;;;6.05;2.80;;;;;;;;;;4996072;28;20035;-75
2023/09/12 14:39:38;;;;;;;4.18;2.30;;;;;;;;;;4993298;28;20038;-74
2023/09/12 14:42:08;;;;;;;2.90;2.10;;;;;;;;;;4992361;28;20088;-75
2023/09/12 14:44:34;;;;;;;4.73;2.13;;;;;;;;;;4978707;28;20041;-75
2023/09/12 14:47:00;;;;;;;2.10;1.70;;;;;;;;;;4988780;28;20018;-75